createdAt,value
2018-09-06T00:01:55.270Z,15.93
2018-09-06T00:04:22.529Z,16.47
2018-09-06T00:06:49.719Z,16.30
2018-09-06T00:09:16.854Z,15.53
2018-09-06T00:11:44.009Z,14.87
2018-09-06T00:14:11.594Z,16.00
2018-09-06T00:16:38.777Z,16.77
2018-09-06T00:19:06.045Z,15.23
2018-09-06T00:21:33.239Z,15.20
2018-09-06T00:24:00.584Z,14.83
2018-09-06T00:26:27.804Z,15.20
2018-09-06T00:28:55.002Z,16.30
2018-09-06T00:31:22.212Z,15.77
2018-09-06T00:33:49.434Z,15.47
2018-09-06T00:36:16.615Z,15.33
2018-09-06T00:38:43.855Z,14.97
2018-09-06T00:41:11.071Z,16.33
2018-09-06T00:43:38.338Z,16.00
2018-09-06T00:46:05.853Z,15.37
2018-09-06T00:48:33.189Z,15.33
2018-09-06T00:51:00.470Z,14.30
2018-09-06T00:53:27.660Z,15.80
2018-09-06T00:55:54.952Z,15.97
2018-09-06T00:58:22.169Z,15.47
2018-09-06T01:00:49.345Z,14.40
2018-09-06T01:03:16.633Z,15.07
2018-09-06T01:05:43.882Z,14.60
2018-09-06T01:08:11.060Z,15.80
2018-09-06T01:10:38.385Z,15.10
2018-09-06T01:13:05.674Z,15.53
2018-09-06T01:15:32.868Z,14.67
2018-09-06T01:18:00.171Z,15.63
2018-09-06T01:20:27.425Z,16.20
2018-09-06T01:22:54.593Z,16.00
2018-09-06T01:25:21.824Z,15.30
2018-09-06T01:27:50.052Z,15.47
2018-09-06T01:30:17.388Z,15.80
2018-09-06T01:32:44.580Z,16.17
2018-09-06T01:35:11.899Z,15.60
2018-09-06T01:37:39.168Z,15.07
2018-09-06T01:40:06.369Z,16.23
2018-09-06T01:42:33.578Z,14.93
2018-09-06T01:45:00.822Z,16.93
2018-09-06T01:47:28.027Z,15.80
2018-09-06T01:49:55.286Z,15.67
2018-09-06T01:52:22.441Z,15.60
2018-09-06T01:54:49.683Z,16.10
2018-09-06T01:57:17.600Z,15.80
2018-09-06T01:59:44.860Z,16.77
2018-09-06T02:02:12.084Z,16.47
2018-09-06T02:04:39.313Z,16.27
2018-09-06T02:07:06.685Z,16.57
2018-09-06T02:09:33.909Z,17.40
2018-09-06T02:12:01.135Z,16.40
2018-09-06T02:14:28.293Z,17.17
2018-09-06T02:16:55.540Z,16.37
2018-09-06T02:19:22.773Z,16.57
2018-09-06T02:21:50.115Z,17.37
2018-09-06T02:24:17.652Z,16.00
2018-09-06T02:26:44.744Z,17.10
2018-09-06T02:29:11.999Z,16.20
2018-09-06T02:31:39.228Z,16.40
2018-09-06T02:34:06.928Z,18.17
2018-09-06T02:36:34.168Z,16.80
2018-09-06T02:39:01.548Z,16.27
2018-09-06T02:41:28.773Z,17.40
2018-09-06T02:43:55.980Z,16.63
2018-09-06T02:46:23.205Z,16.80
2018-09-06T02:48:50.588Z,16.90
2018-09-06T02:51:19.734Z,15.17
2018-09-06T02:53:46.901Z,16.90
2018-09-06T02:56:14.944Z,15.20
2018-09-06T02:58:42.273Z,16.47
2018-09-06T03:01:09.756Z,15.67
2018-09-06T03:03:36.861Z,15.67
2018-09-06T03:06:04.081Z,15.20
2018-09-06T03:08:31.463Z,14.97
2018-09-06T03:11:04.476Z,14.60
2018-09-06T03:13:31.611Z,15.90
2018-09-06T03:15:59.466Z,16.20
2018-09-06T03:18:26.645Z,15.53
2018-09-06T03:20:53.838Z,17.13
2018-09-06T03:23:20.975Z,17.90
2018-09-06T03:25:48.157Z,16.83
2018-09-06T03:28:15.355Z,16.80
2018-09-06T03:30:42.616Z,18.20
2018-09-06T03:33:09.702Z,17.00
2018-09-06T03:35:40.317Z,17.20
2018-09-06T03:38:07.438Z,17.80
2018-09-06T03:40:34.675Z,18.40
2018-09-06T03:43:01.778Z,17.13
2018-09-06T03:45:28.905Z,18.57
2018-09-06T03:47:56.190Z,17.00
2018-09-06T03:50:23.437Z,16.40
2018-09-06T03:52:50.628Z,18.67
2018-09-06T03:55:17.808Z,18.37
2018-09-06T03:57:44.947Z,18.20
2018-09-06T04:00:12.160Z,18.57
2018-09-06T04:02:39.278Z,18.03
2018-09-06T04:05:06.542Z,18.10
2018-09-06T04:07:33.740Z,19.33
2018-09-06T04:10:00.875Z,17.83
2018-09-06T04:12:28.112Z,18.00
2018-09-06T04:14:55.290Z,17.97
2018-09-06T04:17:22.390Z,19.27
2018-09-06T04:19:49.918Z,19.53
2018-09-06T04:22:17.073Z,17.70
2018-09-06T04:24:44.233Z,18.33
2018-09-06T04:27:11.383Z,18.37
2018-09-06T04:29:38.471Z,16.37
2018-09-06T04:32:05.719Z,18.17
2018-09-06T04:34:32.865Z,17.70
2018-09-06T04:37:00.004Z,17.50
2018-09-06T04:39:27.242Z,18.37
2018-09-06T04:41:54.380Z,16.83
2018-09-06T04:44:21.474Z,19.13
2018-09-06T04:46:49.447Z,17.53
2018-09-06T04:49:16.937Z,17.30
2018-09-06T04:51:44.126Z,18.17
2018-09-06T04:54:11.321Z,16.50
2018-09-06T04:56:38.429Z,18.33
2018-09-06T04:59:05.639Z,17.70
2018-09-06T05:01:32.793Z,18.60
2018-09-06T05:04:00.118Z,18.63
2018-09-06T05:06:27.310Z,19.00
2018-09-06T05:08:54.607Z,18.30
2018-09-06T05:11:21.767Z,18.00
2018-09-06T05:13:49.036Z,18.23
2018-09-06T05:16:16.397Z,19.33
2018-09-06T05:18:43.493Z,18.77
2018-09-06T05:21:10.672Z,17.67
2018-09-06T05:23:37.961Z,17.40
2018-09-06T05:26:05.407Z,17.83
2018-09-06T05:28:32.632Z,18.00
2018-09-06T05:30:59.770Z,23.13
2018-09-06T05:33:26.909Z,20.57
2018-09-06T05:35:54.225Z,18.90
2018-09-06T05:38:21.387Z,19.43
2018-09-06T05:40:48.597Z,21.33
2018-09-06T05:43:15.743Z,19.50
2018-09-06T05:45:42.976Z,20.27
2018-09-06T05:48:10.105Z,19.37
2018-09-06T05:50:37.300Z,18.70
2018-09-06T05:53:04.683Z,19.77
2018-09-06T05:55:31.836Z,19.50
2018-09-06T05:57:59.010Z,20.40
2018-09-06T06:00:32.085Z,17.70
2018-09-06T06:03:01.210Z,17.93
2018-09-06T06:05:28.554Z,18.80
2018-09-06T06:08:07.629Z,19.80
2018-09-06T06:10:34.821Z,19.83
2018-09-06T06:13:01.944Z,19.47
2018-09-06T06:15:29.036Z,20.60
2018-09-06T06:17:56.167Z,20.20
2018-09-06T06:20:24.391Z,20.37
2018-09-06T06:22:53.562Z,20.13
2018-09-06T06:25:20.765Z,20.67
2018-09-06T06:27:47.900Z,22.33
2018-09-06T06:30:15.081Z,25.27
2018-09-06T06:32:42.309Z,22.93
2018-09-06T06:35:09.497Z,22.37
2018-09-06T06:37:36.637Z,23.67
2018-09-06T06:40:03.838Z,22.47
2018-09-06T06:42:31.316Z,23.03
2018-09-06T06:44:58.466Z,21.17
2018-09-06T06:47:27.768Z,22.40
2018-09-06T06:49:54.923Z,22.60
2018-09-06T06:52:22.116Z,22.53
2018-09-06T06:54:49.300Z,23.57
2018-09-06T06:57:16.398Z,26.10
2018-09-06T06:59:43.545Z,23.67
2018-09-06T07:02:10.716Z,27.60
2018-09-06T07:04:37.927Z,22.47
2018-09-06T07:07:05.336Z,23.30
2018-09-06T07:09:32.435Z,25.10
2018-09-06T07:11:59.645Z,24.03
2018-09-06T07:14:27.171Z,38.53
2018-09-06T07:16:54.476Z,25.10
2018-09-06T07:19:21.870Z,24.20
2018-09-06T07:21:49.212Z,24.50
2018-09-06T07:24:17.445Z,21.50
2018-09-06T07:26:44.615Z,21.00
2018-09-06T07:29:11.886Z,23.60
2018-09-06T07:31:39.264Z,21.60
2018-09-06T07:34:06.628Z,22.50
2018-09-06T07:36:33.857Z,24.20
2018-09-06T07:39:01.190Z,23.83
2018-09-06T07:41:29.487Z,22.53
2018-09-06T07:43:57.640Z,21.50
2018-09-06T07:46:25.116Z,19.17
2018-09-06T07:48:52.314Z,20.03
2018-09-06T07:51:19.585Z,19.73
2018-09-06T07:53:46.812Z,31.33
2018-09-06T07:56:14.023Z,30.50
2018-09-06T07:58:41.222Z,19.00
2018-09-06T08:01:08.727Z,20.87
2018-09-06T08:03:35.900Z,23.60
2018-09-06T08:06:03.097Z,23.20
2018-09-06T08:08:30.273Z,26.23
2018-09-06T08:10:57.454Z,19.50
2018-09-06T08:13:24.877Z,21.50
2018-09-06T08:15:52.037Z,20.70
2018-09-06T08:18:19.206Z,20.03
2018-09-06T08:20:48.560Z,20.13
2018-09-06T08:23:15.920Z,19.33
2018-09-06T08:25:43.152Z,21.43
2018-09-06T08:28:10.462Z,20.63
2018-09-06T08:30:37.810Z,23.77
2018-09-06T08:33:05.021Z,22.73
2018-09-06T08:35:32.277Z,23.73
2018-09-06T08:37:59.432Z,25.17
2018-09-06T08:40:26.770Z,22.13
2018-09-06T08:42:53.948Z,23.23
2018-09-06T08:45:21.238Z,24.50
2018-09-06T08:47:48.516Z,24.43
2018-09-06T08:50:15.756Z,23.33
2018-09-06T08:52:43.004Z,23.37
2018-09-06T08:55:10.352Z,25.03
2018-09-06T08:57:37.576Z,24.47
2018-09-06T09:00:05.104Z,24.30
2018-09-06T09:02:32.395Z,24.07
2018-09-06T09:05:00.015Z,26.90
2018-09-06T09:07:27.286Z,24.90
2018-09-06T09:09:54.561Z,25.03
2018-09-06T09:12:21.813Z,24.70
2018-09-06T09:14:49.017Z,22.93
2018-09-06T09:17:16.229Z,23.57
2018-09-06T09:19:43.425Z,23.90
2018-09-06T09:22:10.855Z,23.27
2018-09-06T09:24:38.089Z,23.33
2018-09-06T09:27:05.531Z,23.70
2018-09-06T09:29:32.745Z,22.80
2018-09-06T09:32:00.057Z,23.53
2018-09-06T09:34:27.679Z,24.77
2018-09-06T09:36:55.320Z,23.73
2018-09-06T09:39:22.599Z,23.73
2018-09-06T09:41:49.909Z,24.73
2018-09-06T09:44:17.109Z,25.83
2018-09-06T09:49:11.365Z,23.50
2018-09-06T09:51:38.575Z,26.33
2018-09-06T09:54:06.111Z,24.83
2018-09-06T09:56:33.345Z,23.47
2018-09-06T09:59:01.598Z,22.73
2018-09-06T10:01:34.818Z,23.87
2018-09-06T10:04:07.786Z,23.30
2018-09-06T10:06:40.927Z,24.20
2018-09-06T10:09:13.926Z,24.97
2018-09-06T10:11:41.114Z,23.13
2018-09-06T10:14:08.308Z,26.60
2018-09-06T10:16:35.558Z,24.70
2018-09-06T10:19:02.835Z,25.37
2018-09-06T10:21:30.047Z,24.37
2018-09-06T10:23:57.769Z,22.87
2018-09-06T10:26:26.206Z,24.60
2018-09-06T10:28:53.437Z,23.10
2018-09-06T10:31:20.919Z,24.67
2018-09-06T10:33:48.311Z,23.13
2018-09-06T10:36:15.637Z,20.33
2018-09-06T10:38:42.826Z,19.27
2018-09-06T10:41:10.158Z,19.00
2018-09-06T10:43:37.487Z,18.13
2018-09-06T10:46:04.780Z,18.97
2018-09-06T10:48:32.070Z,18.30
2018-09-06T10:50:59.437Z,18.07
2018-09-06T10:53:27.288Z,17.30
2018-09-06T10:55:55.600Z,17.80
2018-09-06T10:58:23.191Z,17.60
2018-09-06T11:00:55.013Z,16.60
2018-09-06T11:03:23.386Z,18.07
2018-09-06T11:05:50.824Z,21.13
2018-09-06T11:08:18.073Z,19.20
2018-09-06T11:10:45.660Z,20.77
2018-09-06T11:13:13.059Z,19.20
2018-09-06T11:15:40.316Z,19.17
2018-09-06T11:18:07.678Z,19.50
2018-09-06T11:20:34.948Z,19.50
2018-09-06T11:23:04.257Z,18.97
2018-09-06T11:25:31.583Z,20.50
2018-09-06T11:27:58.904Z,18.67
2018-09-06T11:30:26.278Z,19.00
2018-09-06T11:32:53.519Z,16.13
2018-09-06T11:35:21.188Z,17.10
2018-09-06T11:37:48.516Z,12.63
2018-09-06T11:40:15.827Z,14.33
2018-09-06T11:42:43.305Z,11.53
2018-09-06T11:45:10.541Z,12.13
2018-09-06T11:47:37.896Z,12.77
2018-09-06T11:50:05.446Z,16.03
2018-09-06T11:52:32.780Z,13.33
2018-09-06T11:55:00.169Z,13.30
2018-09-06T11:57:27.660Z,11.93
2018-09-06T11:59:54.991Z,13.07
2018-09-06T12:02:22.248Z,11.60
2018-09-06T12:04:49.502Z,12.60
2018-09-06T12:07:16.765Z,13.67
2018-09-06T12:09:44.135Z,13.00
2018-09-06T12:12:11.372Z,11.63
2018-09-06T12:14:39.656Z,12.03
2018-09-06T12:17:07.069Z,10.63
2018-09-06T12:19:34.417Z,11.73
2018-09-06T12:22:02.189Z,13.00
2018-09-06T12:24:29.555Z,13.10
2018-09-06T12:26:56.947Z,13.93
2018-09-06T12:29:24.585Z,15.73
2018-09-06T12:31:51.779Z,13.77
2018-09-06T12:34:19.140Z,16.10
2018-09-06T12:36:46.656Z,18.00
2018-09-06T12:39:14.069Z,15.20
2018-09-06T12:41:41.452Z,16.87
2018-09-06T12:44:08.823Z,16.87
2018-09-06T12:46:36.203Z,15.90
2018-09-06T12:49:03.460Z,16.67
2018-09-06T12:51:35.205Z,16.13
2018-09-06T12:54:02.494Z,16.20
2018-09-06T12:56:29.763Z,15.87
2018-09-06T12:58:57.029Z,16.53
2018-09-06T13:01:26.303Z,17.40
2018-09-06T13:03:53.470Z,15.77
2018-09-06T13:06:20.684Z,16.13
2018-09-06T13:08:49.101Z,14.03
2018-09-06T13:11:16.359Z,13.30
2018-09-06T13:13:43.645Z,14.30
2018-09-06T13:16:11.143Z,11.63
2018-09-06T13:18:38.475Z,11.80
2018-09-06T13:21:05.552Z,11.17
2018-09-06T13:23:32.779Z,11.33
2018-09-06T13:26:02.040Z,11.03
2018-09-06T13:28:32.647Z,11.33
2018-09-06T13:30:59.815Z,9.80
2018-09-06T13:33:34.396Z,9.40
2018-09-06T13:36:01.680Z,9.13
2018-09-06T13:38:29.064Z,8.90
2018-09-06T13:40:56.229Z,10.50
2018-09-06T13:43:23.482Z,10.70
2018-09-06T13:48:38.792Z,10.70
2018-09-06T13:51:06.242Z,8.90
2018-09-06T13:53:33.439Z,10.30
2018-09-06T13:56:01.517Z,10.40
2018-09-06T13:58:28.889Z,10.00
2018-09-06T14:00:56.172Z,9.57
2018-09-06T14:03:24.466Z,11.20
2018-09-06T14:05:54.046Z,11.10
2018-09-06T14:08:21.207Z,10.33
2018-09-06T14:10:49.559Z,10.47
2018-09-06T14:13:17.924Z,10.47
2018-09-06T14:15:45.345Z,10.90
2018-09-06T14:18:13.398Z,10.60
2018-09-06T14:20:40.723Z,11.37
2018-09-06T14:23:08.111Z,11.13
2018-09-06T14:25:35.796Z,11.50
2018-09-06T14:28:04.108Z,11.20
2018-09-06T14:30:31.546Z,11.50
2018-09-06T14:33:08.071Z,12.67
2018-09-06T14:35:36.153Z,11.53
2018-09-06T14:38:03.584Z,11.13
2018-09-06T14:40:30.738Z,10.90
2018-09-06T14:42:58.059Z,12.70
2018-09-06T14:45:25.345Z,11.70
2018-09-06T14:47:52.748Z,10.83
2018-09-06T14:50:20.249Z,11.10
2018-09-06T14:52:47.555Z,11.03
2018-09-06T14:55:14.822Z,11.90
2018-09-06T14:57:42.254Z,11.47
2018-09-06T15:00:11.389Z,11.67
2018-09-06T15:02:38.660Z,12.57
2018-09-06T15:05:06.169Z,12.73
2018-09-06T15:07:33.532Z,16.10
2018-09-06T15:10:00.817Z,16.40
2018-09-06T15:12:29.197Z,16.27
2018-09-06T15:14:56.447Z,17.07
2018-09-06T15:17:23.648Z,15.43
2018-09-06T15:19:50.869Z,17.10
2018-09-06T15:22:19.367Z,16.80
2018-09-06T15:24:46.668Z,18.63
2018-09-06T15:27:13.928Z,16.70
2018-09-06T15:29:41.302Z,18.40
2018-09-06T15:32:08.592Z,17.00
2018-09-06T15:34:36.002Z,17.13
2018-09-06T15:37:03.201Z,35.40
2018-09-06T15:39:30.774Z,45.07
2018-09-06T15:41:58.282Z,17.60
2018-09-06T15:44:25.620Z,18.07
2018-09-06T15:46:53.324Z,17.70
2018-09-06T15:49:20.755Z,16.60
2018-09-06T15:51:48.163Z,18.33
2018-09-06T15:54:15.518Z,19.00
2018-09-06T15:56:42.870Z,18.30
2018-09-06T15:59:10.078Z,19.33
2018-09-06T16:01:37.328Z,18.53
2018-09-06T16:04:04.581Z,19.10
2018-09-06T16:06:31.999Z,20.53
2018-09-06T16:08:59.462Z,49.93
2018-09-06T16:11:26.754Z,38.33
2018-09-06T16:13:54.119Z,18.13
2018-09-06T16:16:21.579Z,18.23
2018-09-06T16:18:48.896Z,17.57
2018-09-06T16:21:16.191Z,18.40
2018-09-06T16:23:43.554Z,18.80
2018-09-06T16:26:10.940Z,17.40
2018-09-06T16:28:39.413Z,31.27
2018-09-06T16:31:06.809Z,31.10
2018-09-06T16:33:34.600Z,21.10
2018-09-06T16:36:05.115Z,19.47
2018-09-06T16:38:32.398Z,21.10
2018-09-06T16:40:59.690Z,17.80
2018-09-06T16:43:26.912Z,32.10
2018-09-06T16:45:54.688Z,23.40
2018-09-06T16:48:22.145Z,22.03
2018-09-06T16:50:49.615Z,18.93
2018-09-06T16:53:16.890Z,26.63
2018-09-06T16:55:44.206Z,22.30
2018-09-06T16:58:11.420Z,23.10
2018-09-06T17:00:38.604Z,21.03
2018-09-06T17:03:05.834Z,18.57
2018-09-06T17:05:33.105Z,18.27
2018-09-06T17:08:00.634Z,20.17
2018-09-06T17:10:28.988Z,23.50
2018-09-06T17:12:56.182Z,20.80
2018-09-06T17:15:23.723Z,19.57
2018-09-06T17:17:51.279Z,18.80
2018-09-06T17:20:18.493Z,17.70
2018-09-06T17:22:45.690Z,18.40
2018-09-06T17:25:12.943Z,19.53
2018-09-06T17:27:41.255Z,30.60
2018-09-06T17:30:08.517Z,22.27
2018-09-06T17:32:36.551Z,22.57
2018-09-06T17:35:04.081Z,19.50
2018-09-06T17:37:31.302Z,18.60
2018-09-06T17:39:58.667Z,19.33
2018-09-06T17:42:27.637Z,20.17
2018-09-06T17:44:54.945Z,22.50
2018-09-06T17:47:22.337Z,19.90
2018-09-06T17:49:49.698Z,19.67
2018-09-06T17:52:17.093Z,17.80
2018-09-06T17:54:44.999Z,17.50
2018-09-06T17:57:12.378Z,17.00
2018-09-06T17:59:41.100Z,18.17
2018-09-06T18:02:09.142Z,16.80
2018-09-06T18:04:36.533Z,16.27
2018-09-06T18:07:04.410Z,15.37
2018-09-06T18:09:33.794Z,15.80
2018-09-06T18:12:01.153Z,17.20
2018-09-06T18:14:28.629Z,15.47
2018-09-06T18:16:56.039Z,15.23
2018-09-06T18:19:24.320Z,15.00
2018-09-06T18:21:56.147Z,15.10
2018-09-06T18:24:23.686Z,15.97
2018-09-06T18:26:51.806Z,14.63
2018-09-06T18:29:19.717Z,15.23
2018-09-06T18:31:47.063Z,16.90
2018-09-06T18:34:14.345Z,15.40
2018-09-06T18:36:42.664Z,16.17
2018-09-06T18:39:11.274Z,15.60
2018-09-06T18:41:39.191Z,16.70
2018-09-06T18:44:06.642Z,15.90
2018-09-06T18:46:34.054Z,17.30
2018-09-06T18:49:03.032Z,16.13
2018-09-06T18:51:30.223Z,15.87
2018-09-06T18:53:57.580Z,17.10
2018-09-06T18:56:24.789Z,16.47
2018-09-06T18:58:52.075Z,16.33
2018-09-06T19:01:19.262Z,17.33
2018-09-06T19:03:46.489Z,17.63
2018-09-06T19:06:14.463Z,16.60
2018-09-06T19:08:41.925Z,16.43
2018-09-06T19:11:09.281Z,17.40
2018-09-06T19:13:36.404Z,18.57
2018-09-06T19:16:04.250Z,17.90
2018-09-06T19:18:31.630Z,17.93
2018-09-06T19:20:58.793Z,17.77
2018-09-06T19:23:26.934Z,16.93
2018-09-06T19:25:54.201Z,18.73
2018-09-06T19:28:21.491Z,16.77
2018-09-06T19:30:50.494Z,16.60
2018-09-06T19:33:19.016Z,17.90
2018-09-06T19:35:47.095Z,17.17
2018-09-06T19:38:14.637Z,17.80
2018-09-06T19:40:42.925Z,19.23
2018-09-06T19:43:10.226Z,21.67
2018-09-06T19:45:37.976Z,23.43
2018-09-06T19:48:05.610Z,23.83
2018-09-06T19:50:32.874Z,21.23
2018-09-06T19:53:00.353Z,20.80
2018-09-06T19:55:27.594Z,20.30
2018-09-06T19:57:54.935Z,24.37
2018-09-06T20:00:22.183Z,19.13
2018-09-06T20:02:50.877Z,21.10
2018-09-06T20:05:19.479Z,22.07
2018-09-06T20:07:49.149Z,21.73
2018-09-06T20:10:17.033Z,21.63
2018-09-06T20:12:48.010Z,32.60
2018-09-06T20:15:16.417Z,21.00
2018-09-06T20:17:46.177Z,21.70
2018-09-06T20:20:13.609Z,23.40
2018-09-06T20:22:41.626Z,30.67
2018-09-06T20:25:09.394Z,40.40
2018-09-06T20:27:36.977Z,24.60
2018-09-06T20:30:07.328Z,22.07
2018-09-06T20:32:34.775Z,25.13
2018-09-06T20:35:02.521Z,22.83
2018-09-06T20:37:30.075Z,23.60
2018-09-06T20:39:58.769Z,24.90
2018-09-06T20:42:26.101Z,27.40
2018-09-06T20:44:53.771Z,24.80
2018-09-06T20:47:21.848Z,27.47
2018-09-06T20:49:49.098Z,22.47
2018-09-06T20:52:16.717Z,27.23
2018-09-06T20:54:43.912Z,23.53
2018-09-06T20:57:11.202Z,52.33
2018-09-06T20:59:38.496Z,23.40
2018-09-06T21:02:11.461Z,25.33
2018-09-06T21:04:38.786Z,25.10
2018-09-06T21:07:06.157Z,31.23
2018-09-06T21:09:33.627Z,28.17
2018-09-06T21:12:00.825Z,25.47
2018-09-06T21:14:28.136Z,26.27
2018-09-06T21:16:55.475Z,26.53
2018-09-06T21:19:22.755Z,29.33
2018-09-06T21:21:52.051Z,28.63
2018-09-06T21:24:19.573Z,31.33
2018-09-06T21:26:46.838Z,31.70
2018-09-06T21:29:14.537Z,32.73
2018-09-06T21:31:41.768Z,33.20
2018-09-06T21:34:08.976Z,32.20
2018-09-06T21:36:36.306Z,33.80
2018-09-06T21:39:06.458Z,32.40
2018-09-06T21:41:33.752Z,33.57
2018-09-06T21:44:01.001Z,34.50
2018-09-06T21:46:29.006Z,32.40
2018-09-06T21:48:56.566Z,32.87
2018-09-06T21:51:23.997Z,38.07
2018-09-06T21:53:52.105Z,33.77
2018-09-06T21:56:19.366Z,34.07
2018-09-06T21:58:46.546Z,35.37
2018-09-06T22:01:13.971Z,31.17
2018-09-06T22:03:46.996Z,33.00
2018-09-06T22:06:14.280Z,33.73
2018-09-06T22:08:41.536Z,34.80
2018-09-06T22:11:08.940Z,34.70
2018-09-06T22:13:36.064Z,33.60
2018-09-06T22:16:04.119Z,31.00
2018-09-06T22:18:32.419Z,34.30
2018-09-06T22:21:00.804Z,33.93
2018-09-06T22:23:28.010Z,36.40
2018-09-06T22:25:55.162Z,36.77
2018-09-06T22:28:22.304Z,34.03
2018-09-06T22:30:49.396Z,35.60
2018-09-06T22:33:16.481Z,35.37
2018-09-06T22:35:43.639Z,36.23
2018-09-06T22:38:10.768Z,33.87
2018-09-06T22:40:38.052Z,31.47
2018-09-06T22:43:05.332Z,30.60
2018-09-06T22:45:32.498Z,34.90
2018-09-06T22:47:59.620Z,29.83
2018-09-06T22:50:27.794Z,28.87
2018-09-06T22:52:54.937Z,30.77
2018-09-06T22:55:22.064Z,31.47
2018-09-06T22:57:50.164Z,32.40
2018-09-06T23:00:19.364Z,33.63
2018-09-06T23:02:52.452Z,34.47
2018-09-06T23:05:19.673Z,35.07
2018-09-06T23:07:46.791Z,31.80
2018-09-06T23:10:13.986Z,36.37
2018-09-06T23:12:41.011Z,35.27
2018-09-06T23:15:08.242Z,40.00
2018-09-06T23:17:35.376Z,40.40
2018-09-06T23:20:02.633Z,37.73
2018-09-06T23:22:29.800Z,37.73
2018-09-06T23:24:56.920Z,34.93
2018-09-06T23:27:25.461Z,33.00
2018-09-06T23:29:52.731Z,35.23
2018-09-06T23:32:19.869Z,33.97
2018-09-06T23:34:47.032Z,31.97
2018-09-06T23:37:14.248Z,32.67
2018-09-06T23:39:41.476Z,33.40
2018-09-06T23:42:08.902Z,31.87
2018-09-06T23:44:36.024Z,35.00
2018-09-06T23:47:03.153Z,31.40
2018-09-06T23:49:33.942Z,35.70
2018-09-06T23:52:01.088Z,36.80
2018-09-06T23:54:28.248Z,41.47
2018-09-06T23:56:55.436Z,41.93
2018-09-06T23:59:22.559Z,39.20
